createdAt,value
2022-09-28T00:00:42.254Z,99310.97
2022-09-28T00:03:48.797Z,99313.16
2022-09-28T00:06:50.365Z,99310.03
2022-09-28T00:09:51.905Z,99309.41
2022-09-28T00:12:56.435Z,99303.75
2022-09-28T00:16:07.335Z,99307.63
2022-09-28T00:19:10.642Z,99305.44
2022-09-28T00:22:12.161Z,99309.19
2022-09-28T00:25:13.811Z,99303.28
2022-09-28T00:28:15.353Z,99308.81
2022-09-28T00:31:18.045Z,99302.91
2022-09-28T00:34:20.127Z,99300.63
2022-09-28T00:37:21.724Z,99300.00
2022-09-28T00:40:23.293Z,99303.03
2022-09-28T00:43:25.292Z,99296.38
2022-09-28T00:46:36.564Z,99295.06
2022-09-28T00:49:45.602Z,99297.25
2022-09-28T00:53:01.010Z,99300.25
2022-09-28T00:56:10.472Z,99291.81
2022-09-28T00:59:12.186Z,99287.59
2022-09-28T01:02:14.131Z,99282.75
2022-09-28T01:05:17.977Z,99276.84
2022-09-28T01:08:21.948Z,99274.81
2022-09-28T01:11:24.861Z,99271.78
2022-09-28T01:14:26.554Z,99279.34
2022-09-28T01:17:49.966Z,99267.41
2022-09-28T01:21:01.162Z,99273.78
2022-09-28T01:24:21.684Z,99271.34
2022-09-28T01:27:26.704Z,99278.78
2022-09-28T01:30:29.027Z,99287.28
2022-09-28T01:33:55.816Z,99289.91
2022-09-28T01:37:01.605Z,99278.88
2022-09-28T01:40:06.274Z,99275.66
2022-09-28T01:43:19.852Z,99274.06
2022-09-28T01:46:25.575Z,99269.72
2022-09-28T01:49:38.343Z,99266.13
2022-09-28T01:53:12.344Z,99257.34
2022-09-28T01:56:26.813Z,99256.50
2022-09-28T01:59:32.381Z,99253.16
2022-09-28T02:02:45.440Z,99256.00
2022-09-28T02:05:59.828Z,99247.25
2022-09-28T02:09:33.027Z,99250.84
2022-09-28T02:12:46.707Z,99250.34
2022-09-28T02:16:05.111Z,99250.69
2022-09-28T02:19:11.431Z,99249.19
2022-09-28T02:22:31.988Z,99244.25
2022-09-28T02:25:42.787Z,99241.97
2022-09-28T02:28:44.329Z,99244.00
2022-09-28T02:31:45.997Z,99243.16
2022-09-28T02:34:47.579Z,99247.59
2022-09-28T02:37:49.997Z,99254.78
2022-09-28T02:41:20.676Z,99251.72
2022-09-28T02:44:50.152Z,99249.75
2022-09-28T02:48:08.700Z,99245.00
2022-09-28T02:51:28.303Z,99248.19
2022-09-28T02:54:54.477Z,99248.53
2022-09-28T02:58:27.216Z,99244.31
2022-09-28T03:01:47.182Z,99244.31
2022-09-28T03:05:13.484Z,99244.31
2022-09-28T03:08:29.532Z,99243.47
2022-09-28T03:11:38.071Z,99242.63
2022-09-28T03:14:39.767Z,99233.97
2022-09-28T03:17:41.480Z,99241.03
2022-09-28T03:20:43.243Z,99240.31
2022-09-28T03:23:44.872Z,99242.34
2022-09-28T03:26:46.408Z,99240.00
2022-09-28T03:29:47.963Z,99239.38
2022-09-28T03:33:00.456Z,99244.25
2022-09-28T03:36:02.155Z,99242.69
2022-09-28T03:39:04.472Z,99242.16
2022-09-28T03:42:06.133Z,99242.38
2022-09-28T03:45:07.935Z,99241.53
2022-09-28T03:48:09.504Z,99238.03
2022-09-28T03:51:12.560Z,99238.03
2022-09-28T03:54:14.101Z,99239.94
2022-09-28T03:57:15.713Z,99238.22
2022-09-28T04:00:17.403Z,99232.13
2022-09-28T04:03:18.981Z,99236.56
2022-09-28T04:06:20.749Z,99241.94
2022-09-28T04:09:22.285Z,99238.47
2022-09-28T04:12:24.046Z,99240.34
2022-09-28T04:15:25.788Z,99239.63
2022-09-28T04:18:27.922Z,99233.63
2022-09-28T04:21:29.648Z,99230.25
2022-09-28T04:24:31.279Z,99227.69
2022-09-28T04:27:51.392Z,99234.88
2022-09-28T04:30:52.916Z,99228.97
2022-09-28T04:33:54.521Z,99234.34
2022-09-28T04:36:56.237Z,99236.38
2022-09-28T04:39:57.847Z,99228.53
2022-09-28T04:42:59.392Z,99236.78
2022-09-28T04:46:02.600Z,99236.97
2022-09-28T04:49:04.328Z,99224.75
2022-09-28T04:52:06.528Z,99231.94
2022-09-28T04:55:12.005Z,99224.97
2022-09-28T04:58:13.485Z,99231.09
2022-09-28T05:01:19.013Z,99230.22
2022-09-28T05:04:25.594Z,99225.81
2022-09-28T05:07:27.703Z,99232.88
2022-09-28T05:10:29.216Z,99231.16
2022-09-28T05:13:31.738Z,99233.00
2022-09-28T05:16:36.075Z,99226.88
2022-09-28T05:19:37.775Z,99235.72
2022-09-28T05:22:39.348Z,99238.34
2022-09-28T05:25:41.461Z,99235.81
2022-09-28T05:28:43.129Z,99236.69
2022-09-28T05:31:44.763Z,99242.88
2022-09-28T05:34:46.380Z,99230.63
2022-09-28T05:37:48.091Z,99231.91
2022-09-28T05:40:49.762Z,99233.75
2022-09-28T05:43:52.332Z,99242.16
2022-09-28T05:46:54.747Z,99233.94
2022-09-28T05:49:56.241Z,99235.63
2022-09-28T05:53:02.563Z,99231.53
2022-09-28T05:56:04.205Z,99233.66
2022-09-28T05:59:06.268Z,99236.63
2022-09-28T06:02:07.856Z,99242.25
2022-09-28T06:05:09.498Z,99240.81
2022-09-28T06:08:11.648Z,99253.16
2022-09-28T06:11:13.228Z,99246.00
2022-09-28T06:14:14.947Z,99244.88
2022-09-28T06:17:16.777Z,99246.31
2022-09-28T06:20:18.356Z,99255.63
2022-09-28T06:23:19.955Z,99248.97
2022-09-28T06:26:21.623Z,99255.41
2022-09-28T06:29:23.185Z,99254.81
2022-09-28T06:32:24.735Z,99252.50
2022-09-28T06:35:30.317Z,99256.31
2022-09-28T06:38:33.878Z,99258.56
2022-09-28T06:41:35.462Z,99255.28
2022-09-28T06:44:37.036Z,99264.16
2022-09-28T06:47:38.605Z,99270.28
2022-09-28T06:50:41.693Z,99261.31
2022-09-28T06:53:43.203Z,99269.84
2022-09-28T06:56:44.724Z,99272.28
2022-09-28T06:59:46.237Z,99281.66
2022-09-28T07:02:47.929Z,99277.00
2022-09-28T07:05:51.533Z,99276.63
2022-09-28T07:09:04.575Z,99281.38
2022-09-28T07:12:14.668Z,99274.75
2022-09-28T07:15:16.383Z,99281.78
2022-09-28T07:18:18.735Z,99288.31
2022-09-28T07:21:29.369Z,99299.19
2022-09-28T07:24:31.537Z,99289.84
2022-09-28T07:27:33.365Z,99292.72
2022-09-28T07:30:35.564Z,99290.28
2022-09-28T07:33:38.023Z,99291.06
2022-09-28T07:36:39.570Z,99292.28
2022-09-28T07:39:59.944Z,99289.03
2022-09-28T07:43:05.713Z,99291.09
2022-09-28T07:46:14.981Z,99297.59
2022-09-28T07:49:16.853Z,99299.88
2022-09-28T07:52:18.660Z,99303.88
2022-09-28T07:55:20.197Z,99305.22
2022-09-28T07:58:22.268Z,99308.34
2022-09-28T08:01:24.471Z,99309.53
2022-09-28T08:04:26.077Z,99310.03
2022-09-28T08:07:28.014Z,99308.81
2022-09-28T08:10:29.712Z,99311.09
2022-09-28T08:13:31.213Z,99318.72
2022-09-28T08:16:32.911Z,99319.91
2022-09-28T08:19:52.996Z,99322.19
2022-09-28T08:22:54.804Z,99326.88
2022-09-28T08:25:56.344Z,99331.72
2022-09-28T08:28:57.861Z,99328.59
2022-09-28T08:32:02.304Z,99334.50
2022-09-28T08:35:04.065Z,99340.38
2022-09-28T08:38:05.696Z,99341.09
2022-09-28T08:41:45.119Z,99343.50
2022-09-28T08:44:50.995Z,99345.91
2022-09-28T08:48:38.262Z,99347.25
2022-09-28T08:52:00.978Z,99354.69
2022-09-28T08:55:28.738Z,99358.16
2022-09-28T08:58:36.836Z,99361.63
2022-09-28T09:01:45.145Z,99357.50
2022-09-28T09:04:47.101Z,99366.53
2022-09-28T09:08:00.744Z,99365.06
2022-09-28T09:11:14.937Z,99377.09
2022-09-28T09:14:27.784Z,99377.44
2022-09-28T09:17:35.389Z,99379.44
2022-09-28T09:20:59.143Z,99383.16
2022-09-28T09:24:17.424Z,99383.13
2022-09-28T09:28:10.567Z,99381.81
2022-09-28T09:31:38.270Z,99382.19
2022-09-28T09:35:11.397Z,99392.03
2022-09-28T09:38:31.375Z,99382.69
2022-09-28T09:41:35.850Z,99385.91
2022-09-28T09:45:11.625Z,99381.34
2022-09-28T09:48:29.384Z,99394.22
2022-09-28T09:51:36.949Z,99397.47
2022-09-28T09:54:47.988Z,99395.25
2022-09-28T09:58:01.299Z,99396.41
2022-09-28T10:01:12.289Z,99394.47
2022-09-28T10:04:39.473Z,99393.91
2022-09-28T10:08:01.453Z,99398.63
2022-09-28T10:11:12.754Z,99398.13
2022-09-28T10:14:17.570Z,99394.97
2022-09-28T10:17:26.633Z,99402.56
2022-09-28T10:20:32.672Z,99404.09
2022-09-28T10:23:36.763Z,99395.91
2022-09-28T10:26:43.349Z,99400.41
2022-09-28T10:29:54.298Z,99397.47
2022-09-28T10:32:59.480Z,99398.13
2022-09-28T10:36:04.755Z,99400.59
2022-09-28T10:39:06.467Z,99392.03
2022-09-28T10:42:11.676Z,99398.44
2022-09-28T10:45:13.853Z,99398.78
2022-09-28T10:48:19.842Z,99403.16
2022-09-28T10:51:43.719Z,99409.75
2022-09-28T10:54:53.597Z,99408.69
2022-09-28T10:57:55.450Z,99404.00
2022-09-28T11:01:03.711Z,99411.50
2022-09-28T11:04:10.470Z,99405.66
2022-09-28T11:07:32.874Z,99418.06
2022-09-28T11:10:34.661Z,99413.84
2022-09-28T11:13:42.341Z,99414.44
2022-09-28T11:16:44.335Z,99411.00
2022-09-28T11:19:46.187Z,99420.72
2022-09-28T11:22:51.601Z,99415.69
2022-09-28T11:26:17.700Z,99420.94
2022-09-28T11:29:24.732Z,99415.84
2022-09-28T11:32:39.684Z,99415.13
2022-09-28T11:35:52.713Z,99422.34
2022-09-28T11:39:22.440Z,99425.09
2022-09-28T11:42:34.113Z,99430.81
2022-09-28T11:46:08.111Z,99421.94
2022-09-28T11:49:35.567Z,99420.16
2022-09-28T11:52:46.706Z,99430.75
2022-09-28T11:55:57.263Z,99427.69
2022-09-28T11:59:13.335Z,99425.69
2022-09-28T12:02:26.003Z,99429.22
2022-09-28T12:05:36.524Z,99433.53
2022-09-28T12:08:45.989Z,99438.50
2022-09-28T12:11:52.340Z,99434.44
2022-09-28T12:14:59.764Z,99431.09
2022-09-28T12:18:07.245Z,99435.28
2022-09-28T12:21:24.462Z,99425.25
2022-09-28T12:24:32.545Z,99424.69
2022-09-28T12:28:15.581Z,99428.34
2022-09-28T12:32:05.997Z,99428.19
2022-09-28T12:35:17.973Z,99427.81
2022-09-28T12:38:22.602Z,99431.78
2022-09-28T12:41:33.725Z,99432.69
2022-09-28T12:45:17.451Z,99432.28
2022-09-28T12:48:18.937Z,99426.22
2022-09-28T12:51:26.415Z,99430.88
2022-09-28T12:54:53.850Z,99432.19
2022-09-28T12:58:05.649Z,99431.63
2022-09-28T13:01:48.706Z,99437.13
2022-09-28T13:05:20.520Z,99440.91
2022-09-28T13:08:43.628Z,99439.78
2022-09-28T13:11:53.704Z,99438.91
2022-09-28T13:15:08.681Z,99440.25
2022-09-28T13:18:30.483Z,99443.41
2022-09-28T13:21:41.495Z,99440.25
2022-09-28T13:24:46.472Z,99451.25
2022-09-28T13:27:53.375Z,99444.03
2022-09-28T13:34:03.086Z,99442.41
2022-09-28T13:37:10.029Z,99437.06
2022-09-28T13:40:11.775Z,99444.09
2022-09-28T13:43:28.689Z,99444.63
2022-09-28T13:47:04.143Z,99440.13
2022-09-28T13:50:23.712Z,99441.09
2022-09-28T13:53:51.120Z,99441.81
2022-09-28T13:56:59.915Z,99443.47
2022-09-28T14:00:22.104Z,99445.69
2022-09-28T14:03:28.237Z,99448.75
2022-09-28T14:06:32.490Z,99451.28
2022-09-28T14:09:48.134Z,99449.44
2022-09-28T14:12:51.538Z,99450.25
2022-09-28T14:15:53.591Z,99455.78
2022-09-28T14:18:57.964Z,99456.75
2022-09-28T14:22:37.609Z,99465.94
2022-09-28T14:25:45.025Z,99455.41
2022-09-28T14:28:58.759Z,99472.13
2022-09-28T14:32:09.158Z,99468.16
2022-09-28T14:35:27.613Z,99459.81
2022-09-28T14:38:51.706Z,99467.16
2022-09-28T14:41:53.426Z,99468.97
2022-09-28T14:45:06.724Z,99463.34
2022-09-28T14:48:15.255Z,99471.06
2022-09-28T14:51:30.226Z,99477.38
2022-09-28T14:54:45.369Z,99475.00
2022-09-28T14:57:53.368Z,99476.31
2022-09-28T15:01:02.940Z,99476.63
2022-09-28T15:04:10.197Z,99477.63
2022-09-28T15:07:23.479Z,99482.44
2022-09-28T15:10:32.505Z,99477.53
2022-09-28T15:13:34.198Z,99479.53
2022-09-28T15:16:35.759Z,99479.84
2022-09-28T15:20:11.172Z,99482.13
2022-09-28T15:23:39.248Z,99479.22
2022-09-28T15:26:40.826Z,99477.97
2022-09-28T15:30:00.126Z,99486.44
2022-09-28T15:33:22.406Z,99485.91
2022-09-28T15:36:30.010Z,99486.19
2022-09-28T15:39:34.178Z,99494.38
2022-09-28T15:42:37.082Z,99497.19
2022-09-28T15:45:40.681Z,99498.19
2022-09-28T15:48:51.781Z,99507.31
2022-09-28T15:51:56.141Z,99506.47
2022-09-28T15:54:57.768Z,99502.28
2022-09-28T15:58:15.804Z,99510.72
2022-09-28T16:01:23.301Z,99516.94
2022-09-28T16:04:43.914Z,99515.84
2022-09-28T16:07:56.118Z,99515.97
2022-09-28T16:11:04.735Z,99518.41
2022-09-28T16:14:27.306Z,99511.97
2022-09-28T16:17:35.025Z,99515.22
2022-09-28T16:20:39.071Z,99506.97
2022-09-28T16:23:41.600Z,99518.22
2022-09-28T16:26:43.156Z,99509.78
2022-09-28T16:30:16.694Z,99514.59
2022-09-28T16:33:31.080Z,99518.66
2022-09-28T16:36:45.415Z,99521.09
2022-09-28T16:39:46.980Z,99521.09
2022-09-28T16:42:49.556Z,99527.66
2022-09-28T16:45:51.257Z,99526.41
2022-09-28T16:48:55.374Z,99534.00
2022-09-28T16:51:56.900Z,99530.91
2022-09-28T16:55:39.612Z,99539.22
2022-09-28T16:58:38.990Z,99530.22
2022-09-28T17:01:43.783Z,99531.59
2022-09-28T17:04:47.722Z,99533.13
2022-09-28T17:08:02.145Z,99531.88
2022-09-28T17:11:24.100Z,99531.59
2022-09-28T17:14:26.156Z,99539.31
2022-09-28T17:17:29.969Z,99542.69
2022-09-28T17:20:33.424Z,99537.03
2022-09-28T17:23:34.962Z,99548.28
2022-09-28T17:26:36.876Z,99549.81
2022-09-28T17:29:38.447Z,99548.69
2022-09-28T17:32:47.193Z,99555.53
2022-09-28T17:35:51.571Z,99548.94
2022-09-28T17:38:53.207Z,99557.47
2022-09-28T17:41:54.818Z,99554.50
2022-09-28T17:44:56.344Z,99560.25
2022-09-28T17:47:58.538Z,99555.28
2022-09-28T17:51:02.043Z,99562.59
2022-09-28T17:54:04.450Z,99562.88
2022-09-28T17:57:06.002Z,99559.63
2022-09-28T18:00:09.836Z,99561.69
2022-09-28T18:03:19.878Z,99560.16
2022-09-28T18:06:23.443Z,99560.56
2022-09-28T18:09:25.321Z,99561.53
2022-09-28T18:12:27.197Z,99564.56
2022-09-28T18:15:28.800Z,99568.25
2022-09-28T18:18:33.253Z,99565.81
2022-09-28T18:21:34.955Z,99563.28
2022-09-28T18:24:36.737Z,99574.03
2022-09-28T18:27:38.338Z,99567.75
2022-09-28T18:30:41.924Z,99576.59
2022-09-28T18:33:43.492Z,99572.38
2022-09-28T18:36:45.496Z,99573.34
2022-09-28T18:39:47.065Z,99581.59
2022-09-28T18:42:50.075Z,99578.34
2022-09-28T18:45:51.597Z,99576.81
2022-09-28T18:48:53.336Z,99583.34
2022-09-28T18:51:54.927Z,99584.06
2022-09-28T18:54:56.485Z,99584.91
2022-09-28T18:57:58.029Z,99592.19
2022-09-28T19:01:25.210Z,99591.31
2022-09-28T19:04:21.249Z,99602.97
2022-09-28T19:07:23.317Z,99599.31
2022-09-28T19:10:24.841Z,99606.31
2022-09-28T19:13:28.254Z,99603.66
2022-09-28T19:16:33.692Z,99605.63
2022-09-28T19:19:35.808Z,99607.56
2022-09-28T19:22:37.356Z,99615.56
2022-09-28T19:25:40.334Z,99614.09
2022-09-28T19:28:42.017Z,99610.03
2022-09-28T19:31:43.567Z,99611.13
2022-09-28T19:34:45.123Z,99613.91
2022-09-28T19:37:46.785Z,99613.19
2022-09-28T19:40:48.367Z,99617.81
2022-09-28T19:43:50.116Z,99621.44
2022-09-28T19:47:21.746Z,99618.06
2022-09-28T19:50:23.727Z,99623.91
2022-09-28T19:53:30.391Z,99627.69
2022-09-28T19:56:33.409Z,99627.06
2022-09-28T19:59:36.788Z,99633.88
2022-09-28T20:02:38.534Z,99635.94
2022-09-28T20:05:41.553Z,99636.31
2022-09-28T20:08:44.189Z,99634.06
2022-09-28T20:11:46.809Z,99640.59
2022-09-28T20:14:48.328Z,99643.66
2022-09-28T20:17:49.965Z,99646.78
2022-09-28T20:21:02.201Z,99647.56
2022-09-28T20:24:05.062Z,99650.56
2022-09-28T20:27:06.887Z,99659.63
2022-09-28T20:30:09.165Z,99660.47
2022-09-28T20:33:15.707Z,99660.75
2022-09-28T20:36:23.209Z,99661.84
2022-09-28T20:39:24.888Z,99668.94
2022-09-28T20:42:26.688Z,99670.03
2022-09-28T20:45:28.251Z,99671.13
2022-09-28T20:48:29.975Z,99668.47
2022-09-28T20:51:32.216Z,99662.19
2022-09-28T20:54:33.736Z,99665.69
2022-09-28T20:57:35.313Z,99672.00
2022-09-28T21:00:36.958Z,99664.97
2022-09-28T21:03:39.137Z,99668.34
2022-09-28T21:06:42.226Z,99671.72
2022-09-28T21:09:43.739Z,99668.47
2022-09-28T21:12:53.084Z,99669.66
2022-09-28T21:15:54.745Z,99674.88
2022-09-28T21:18:56.696Z,99675.47
2022-09-28T21:21:58.240Z,99674.38
2022-09-28T21:24:59.769Z,99669.16
2022-09-28T21:28:01.501Z,99669.47
2022-09-28T21:31:05.755Z,99671.78
2022-09-28T21:34:13.193Z,99666.34
2022-09-28T21:37:14.749Z,99666.34
2022-09-28T21:40:16.354Z,99674.78
2022-09-28T21:43:17.921Z,99673.50
2022-09-28T21:46:19.521Z,99680.25
2022-09-28T21:49:21.211Z,99675.22
2022-09-28T21:52:22.816Z,99683.28
2022-09-28T21:55:24.417Z,99688.75
2022-09-28T21:58:28.747Z,99682.97
2022-09-28T22:01:31.383Z,99687.56
2022-09-28T22:04:32.962Z,99688.75
2022-09-28T22:07:34.556Z,99693.59
2022-09-28T22:10:36.355Z,99691.19
2022-09-28T22:13:43.676Z,99689.59
2022-09-28T22:16:45.274Z,99693.09
2022-09-28T22:19:46.860Z,99693.59
2022-09-28T22:22:50.025Z,99692.00
2022-09-28T22:25:58.384Z,99691.63
2022-09-28T22:29:02.387Z,99703.47
2022-09-28T22:32:03.959Z,99707.47
2022-09-28T22:35:06.046Z,99706.97
2022-09-28T22:38:07.588Z,99705.63
2022-09-28T22:41:09.952Z,99706.97
2022-09-28T22:44:11.488Z,99708.31
2022-09-28T22:47:13.788Z,99704.31
2022-09-28T22:50:15.343Z,99711.91
2022-09-28T22:53:17.468Z,99708.88
2022-09-28T22:56:19.386Z,99700.41
2022-09-28T22:59:21.029Z,99709.69
2022-09-28T23:02:22.763Z,99710.16
2022-09-28T23:05:24.453Z,99716.78
2022-09-28T23:08:26.018Z,99715.44
2022-09-28T23:11:29.073Z,99708.81
2022-09-28T23:14:30.612Z,99712.63
2022-09-28T23:17:32.227Z,99714.78
2022-09-28T23:20:34.136Z,99713.34
2022-09-28T23:23:35.757Z,99712.84
2022-09-28T23:26:37.260Z,99719.31
2022-09-28T23:29:46.158Z,99719.78
2022-09-28T23:32:47.647Z,99721.94
2022-09-28T23:35:49.826Z,99715.19
2022-09-28T23:38:51.374Z,99722.63
2022-09-28T23:41:52.924Z,99716.81
2022-09-28T23:44:54.505Z,99717.00
2022-09-28T23:47:56.864Z,99713.84
2022-09-28T23:50:58.731Z,99728.28
2022-09-28T23:54:00.310Z,99710.91
2022-09-28T23:57:01.824Z,99725.22
